PolandFixed distance
UltraKotlina50
7 Oct2023
Distance
55.6km
Finishers
233175 men58 women
Winning time
4:01:21h
Median pace
7.36km/h
Pace distribution
233 finishers · 4.89–13.82 km/h · mean 7.43
Every finisher ran the same 55.6 km course, so these paces are directly comparable.
Histogram of finisher pace. 233 finishers ranged from 4.89 to 13.82 kilometres per hour, with a mean of 7.43 and a median of 7.36. The busiest band is 7.5 to 8.0 kilometres per hour, with 41 finishers.
Results
Ranks 51–100 of 233
| Rank | Runner | Time | Pace | Cat. | Placing |
|---|---|---|---|---|---|
| 51 | *Wroclaw | 6:48:33h | 8.16 | M45 | 44th M · 8th M45 |
| 52 | *Opole | 6:48:52h | 8.16 | M40 | 45th M · 8th M40 |
| 53 | Jedz I Trenuj Świebodzin | 6:49:03h | 8.15 | W35 | 8th F · 4th W35 |
| 54 | Reshape Runners | 6:49:33h | 8.15 | M40 | 46th M · 9th M40 |
| 55 | *Wrocław | 6:51:11h | 8.11 | M50 | 47th M · 5th M50 |
| 56 | Lokomotiv Majdan | 6:52:39h | 8.08 | M40 | 48th M · 10th M40 |
| 57 | *Zielona Góra | 6:52:45h | 8.08 | W35 | 9th F · 5th W35 |
| 58 | Fizjobiegacze Szczecin | 6:52:48h | 8.08 | M35 | 49th M · 13th M35 |
| 59 | *Wrocław | 6:52:52h | 8.08 | WU23 | 10th F · 1st WU23 |
| 60 | Wlkp Mountains Ultra /... | 6:53:42h | 8.06 | W40 | 11th F · 2nd W40 |
| 61 | Wlkp Mountains Ultra | 6:53:46h | 8.06 | M35 | 50th M · 14th M35 |
| 62 | *Tervuren | 6:54:36h | 8.05 | M35 | 51st M · 15th M35 |
| 63 | *Tervuren | 6:54:36h | 8.05 | W35 | 12th F · 6th W35 |
| 64 | Solpark Kleszczów | 6:57:07h | 8.00 | M40 | 52nd M · 11th M40 |
| 65 | *Chorzów | 6:57:31h | 7.99 | M23 | 53rd M · 13th M23 |
| 66 | Mitsubishi Materials M... | 6:59:47h | 7.95 | W23 | 13th F · 2nd W23 |
| 67 | Fitnes Piekary Legnica | 6:59:49h | 7.95 | M45 | 54th M · 9th M45 |
| 68 | AW Szybciej/Kb Harcownik | 7:01:48h | 7.91 | M40 | 55th M · 12th M40 |
| 69 | *Poznań | 7:02:13h | 7.90 | M23 | 56th M · 14th M23 |
| 70 | Tkkf Koszalin | 7:02:21h | 7.90 | M35 | 57th M · 16th M35 |
| 71 | *Tarnowskie Góry | 7:02:33h | 7.89 | W45 | 14th F · 2nd W45 |
| 72 | *Opole | 7:02:37h | 7.89 | W45 | 15th F · 3rd W45 |
| 73 | Krakowiak Ultra Team | 7:03:03h | 7.89 | M23 | 58th M · 15th M23 |
| 74 | Sparta Ultra Team | 7:03:41h | 7.87 | M40 | 59th M · 13th M40 |
| 75 | Obornicki Klub Lekkoat... | 7:03:59h | 7.87 | M23 | 60th M · 16th M23 |
| 76 | Ultra Diabły Team Lubrza | 7:04:35h | 7.86 | M35 | 61st M · 17th M35 |
| 77 | *Łódź | 7:07:22h | 7.81 | M55 | 62nd M · 1st M55 |
| 78 | Fitness Piekary Legnica | 7:10:14h | 7.75 | W40 | 16th F · 3rd W40 |
| 79 | Mocna Grupa Cezara | 7:10:30h | 7.75 | M35 | 63rd M · 18th M35 |
| 80 | Euforia Biegacza Team | 7:10:44h | 7.75 | M45 | 64th M · 10th M45 |
| 81 | Spartanie Dzieciom | 7:11:12h | 7.74 | M23 | 65th M · 17th M23 |
| 82 | *Witnica | 7:11:44h | 7.73 | W23 | 17th F · 3rd W23 |
| 83 | *Białcz | 7:11:50h | 7.72 | M45 | 66th M · 11th M45 |
| 84 | *Siechnice | 7:11:57h | 7.72 | W23 | 18th F · 4th W23 |
| 84 | *Siechnice | 7:11:57h | 7.72 | M35 | 67th M · 19th M35 |
| 86 | Fitness Piekary Legnica | 7:12:14h | 7.72 | M35 | 68th M · 20th M35 |
| 87 | Lesz NO Limits Runners | 7:12:49h | 7.71 | W50 | 19th F · 2nd W50 |
| 88 | *Wrocław | 7:13:25h | 7.70 | M35 | 69th M · 21st M35 |
| 89 | *Piechowice | 7:13:43h | 7.69 | M50 | 70th M · 6th M50 |
| 90 | *Gdańsk | 7:14:03h | 7.69 | M35 | 71st M · 22nd M35 |
| 91 | #55Team/ Asicsfrontrun... | 7:15:40h | 7.66 | W23 | 20th F · 5th W23 |
| 92 | KKM | 7:15:44h | 7.66 | M40 | 72nd M · 14th M40 |
| 93 | *Bolesławiec | 7:16:02h | 7.65 | M35 | 73rd M · 23rd M35 |
| 94 | *Elblag | 7:17:53h | 7.62 | M35 | 74th M · 24th M35 |
| 95 | *Wrocław | 7:18:37h | 7.61 | M45 | 75th M · 12th M45 |
| 96 | Drużyna Chrobrego | 7:19:08h | 7.60 | M50 | 76th M · 7th M50 |
| 97 | AW-Szybciej-Team | 7:20:22h | 7.58 | M50 | 77th M · 8th M50 |
| 98 | Morsy Ośno Lubuskie | 7:20:38h | 7.57 | W40 | 21st F · 4th W40 |
| 99 | *Jelenia Góra | 7:21:11h | 7.56 | M40 | 78th M · 15th M40 |
| 100 | UTM..B | 7:21:50h | 7.55 | M45 | 79th M · 13th M45 |
- 51*Wroclaw44th M · 8th M45Time6:48:33hPace8.16Cat.M45
- 52*Opole45th M · 8th M40Time6:48:52hPace8.16Cat.M40
- 53Jedz I Trenuj Świebodzin8th F · 4th W35Time6:49:03hPace8.15Cat.W35
- 54Reshape Runners46th M · 9th M40Time6:49:33hPace8.15Cat.M40
- 55*Wrocław47th M · 5th M50Time6:51:11hPace8.11Cat.M50
- 56Lokomotiv Majdan48th M · 10th M40Time6:52:39hPace8.08Cat.M40
- 57*Zielona Góra9th F · 5th W35Time6:52:45hPace8.08Cat.W35
- 58Fizjobiegacze Szczecin49th M · 13th M35Time6:52:48hPace8.08Cat.M35
- 59*Wrocław10th F · 1st WU23Time6:52:52hPace8.08Cat.WU23
- 60Wlkp Mountains Ultra /...11th F · 2nd W40Time6:53:42hPace8.06Cat.W40
- 61Wlkp Mountains Ultra50th M · 14th M35Time6:53:46hPace8.06Cat.M35
- 62*Tervuren51st M · 15th M35Time6:54:36hPace8.05Cat.M35
- 63*Tervuren12th F · 6th W35Time6:54:36hPace8.05Cat.W35
- 64Solpark Kleszczów52nd M · 11th M40Time6:57:07hPace8.00Cat.M40
- 65*Chorzów53rd M · 13th M23Time6:57:31hPace7.99Cat.M23
- 66Mitsubishi Materials M...13th F · 2nd W23Time6:59:47hPace7.95Cat.W23
- 67Fitnes Piekary Legnica54th M · 9th M45Time6:59:49hPace7.95Cat.M45
- 68AW Szybciej/Kb Harcownik55th M · 12th M40Time7:01:48hPace7.91Cat.M40
- 69*Poznań56th M · 14th M23Time7:02:13hPace7.90Cat.M23
- 70Tkkf Koszalin57th M · 16th M35Time7:02:21hPace7.90Cat.M35
- 71*Tarnowskie Góry14th F · 2nd W45Time7:02:33hPace7.89Cat.W45
- 72*Opole15th F · 3rd W45Time7:02:37hPace7.89Cat.W45
- 73Krakowiak Ultra Team58th M · 15th M23Time7:03:03hPace7.89Cat.M23
- 74Sparta Ultra Team59th M · 13th M40Time7:03:41hPace7.87Cat.M40
- 75Obornicki Klub Lekkoat...60th M · 16th M23Time7:03:59hPace7.87Cat.M23
- 76Ultra Diabły Team Lubrza61st M · 17th M35Time7:04:35hPace7.86Cat.M35
- 77*Łódź62nd M · 1st M55Time7:07:22hPace7.81Cat.M55
- 78Fitness Piekary Legnica16th F · 3rd W40Time7:10:14hPace7.75Cat.W40
- 79Mocna Grupa Cezara63rd M · 18th M35Time7:10:30hPace7.75Cat.M35
- 80Euforia Biegacza Team64th M · 10th M45Time7:10:44hPace7.75Cat.M45
- 81Spartanie Dzieciom65th M · 17th M23Time7:11:12hPace7.74Cat.M23
- 82*Witnica17th F · 3rd W23Time7:11:44hPace7.73Cat.W23
- 83*Białcz66th M · 11th M45Time7:11:50hPace7.72Cat.M45
- 84*Siechnice18th F · 4th W23Time7:11:57hPace7.72Cat.W23
- 84*Siechnice67th M · 19th M35Time7:11:57hPace7.72Cat.M35
- 86Fitness Piekary Legnica68th M · 20th M35Time7:12:14hPace7.72Cat.M35
- 87Lesz NO Limits Runners19th F · 2nd W50Time7:12:49hPace7.71Cat.W50
- 88*Wrocław69th M · 21st M35Time7:13:25hPace7.70Cat.M35
- 89*Piechowice70th M · 6th M50Time7:13:43hPace7.69Cat.M50
- 90*Gdańsk71st M · 22nd M35Time7:14:03hPace7.69Cat.M35
- 91#55Team/ Asicsfrontrun...20th F · 5th W23Time7:15:40hPace7.66Cat.W23
- 92KKM72nd M · 14th M40Time7:15:44hPace7.66Cat.M40
- 93*Bolesławiec73rd M · 23rd M35Time7:16:02hPace7.65Cat.M35
- 94*Elblag74th M · 24th M35Time7:17:53hPace7.62Cat.M35
- 95*Wrocław75th M · 12th M45Time7:18:37hPace7.61Cat.M45
- 96Drużyna Chrobrego76th M · 7th M50Time7:19:08hPace7.60Cat.M50
- 97AW-Szybciej-Team77th M · 8th M50Time7:20:22hPace7.58Cat.M50
- 98Morsy Ośno Lubuskie21st F · 4th W40Time7:20:38hPace7.57Cat.W40
- 99*Jelenia Góra78th M · 15th M40Time7:21:11hPace7.56Cat.M40
- 100UTM..B79th M · 13th M45Time7:21:50hPace7.55Cat.M45
Showing ranks 51–100 of 233